createdAt,value
2022-11-29T00:00:49.495Z,8.00
2022-11-29T00:03:34.998Z,8.20
2022-11-29T00:06:28.544Z,7.32
2022-11-29T00:09:13.939Z,7.40
2022-11-29T00:12:14.180Z,7.97
2022-11-29T00:14:59.922Z,7.20
2022-11-29T00:17:45.202Z,7.65
2022-11-29T00:20:30.877Z,8.77
2022-11-29T00:23:16.762Z,8.40
2022-11-29T00:26:07.117Z,8.55
2022-11-29T00:28:52.977Z,7.38
2022-11-29T00:31:38.917Z,7.30
2022-11-29T00:34:24.489Z,6.75
2022-11-29T00:37:09.856Z,8.88
2022-11-29T00:39:55.321Z,7.65
2022-11-29T00:42:40.914Z,8.45
2022-11-29T00:45:26.089Z,8.25
2022-11-29T00:48:11.496Z,7.18
2022-11-29T00:50:56.938Z,8.13
2022-11-29T00:53:42.275Z,7.30
2022-11-29T00:56:27.985Z,7.50
2022-11-29T00:59:13.631Z,7.30
2022-11-29T01:01:58.837Z,7.40
2022-11-29T01:04:44.418Z,7.18
2022-11-29T01:07:29.855Z,7.40
2022-11-29T01:10:15.472Z,7.97
2022-11-29T01:13:01.001Z,7.93
2022-11-29T01:15:46.213Z,8.52
2022-11-29T01:18:32.220Z,7.25
2022-11-29T01:21:20.121Z,7.88
2022-11-29T01:24:05.659Z,8.00
2022-11-29T01:26:51.334Z,7.65
2022-11-29T01:29:36.684Z,8.05
2022-11-29T01:32:22.096Z,7.78
2022-11-29T01:35:07.935Z,7.03
2022-11-29T01:37:53.485Z,8.23
2022-11-29T01:40:39.051Z,7.57
2022-11-29T01:43:24.346Z,7.72
2022-11-29T01:46:11.790Z,7.20
2022-11-29T01:49:02.246Z,7.40
2022-11-29T01:51:55.654Z,7.40
2022-11-29T01:54:46.152Z,7.15
2022-11-29T01:57:33.852Z,7.38
2022-11-29T02:00:19.961Z,6.72
2022-11-29T02:03:11.148Z,6.43
2022-11-29T02:05:56.896Z,7.72
2022-11-29T02:08:43.000Z,7.43
2022-11-29T02:11:47.353Z,7.88
2022-11-29T02:14:32.985Z,7.45
2022-11-29T02:17:33.831Z,7.28
2022-11-29T02:20:42.206Z,7.05
2022-11-29T02:23:46.671Z,7.88
2022-11-29T02:26:31.829Z,6.97
2022-11-29T02:29:31.783Z,7.75
2022-11-29T02:32:39.082Z,8.15
2022-11-29T02:35:46.384Z,7.15
2022-11-29T02:38:46.678Z,6.80
2022-11-29T02:41:49.612Z,7.53
2022-11-29T02:47:32.756Z,7.18
2022-11-29T02:50:21.541Z,8.35
2022-11-29T02:53:30.262Z,8.25
2022-11-29T02:56:43.237Z,8.20
2022-11-29T03:00:06.583Z,7.13
2022-11-29T03:02:51.896Z,6.60
2022-11-29T03:05:52.760Z,7.47
2022-11-29T03:09:24.026Z,7.15
2022-11-29T03:12:26.069Z,7.43
2022-11-29T03:18:26.393Z,7.60
2022-11-29T03:21:24.077Z,6.93
2022-11-29T03:24:23.960Z,7.05
2022-11-29T03:27:14.496Z,7.47
2022-11-29T03:30:04.310Z,8.15
2022-11-29T03:33:13.029Z,7.40
2022-11-29T03:36:37.747Z,7.05
2022-11-29T03:39:33.242Z,6.78
2022-11-29T03:42:54.983Z,6.88
2022-11-29T03:45:51.972Z,7.55
2022-11-29T03:49:13.464Z,6.55
2022-11-29T03:52:05.830Z,7.93
2022-11-29T03:55:18.916Z,8.27
2022-11-29T03:58:30.054Z,7.90
2022-11-29T04:01:21.773Z,8.05
2022-11-29T04:04:49.194Z,7.57
2022-11-29T04:07:47.807Z,7.30
2022-11-29T04:10:57.190Z,7.40
2022-11-29T04:14:23.857Z,7.47
2022-11-29T04:17:41.578Z,7.22
2022-11-29T04:20:48.133Z,7.57
2022-11-29T04:23:55.791Z,7.78
2022-11-29T04:26:56.460Z,8.43
2022-11-29T04:29:51.232Z,7.95
2022-11-29T04:32:55.656Z,7.75
2022-11-29T04:36:14.990Z,7.75
2022-11-29T04:39:03.529Z,8.18
2022-11-29T04:42:07.873Z,7.90
2022-11-29T04:45:09.010Z,7.75
2022-11-29T04:48:22.454Z,8.10
2022-11-29T04:51:35.926Z,7.85
2022-11-29T04:55:02.476Z,8.82
2022-11-29T04:57:57.786Z,8.70
2022-11-29T05:00:57.318Z,8.75
2022-11-29T05:03:55.377Z,8.18
2022-11-29T05:06:58.037Z,8.30
2022-11-29T05:10:20.781Z,8.07
2022-11-29T05:13:25.924Z,8.00
2022-11-29T05:16:29.692Z,7.25
2022-11-29T05:19:25.351Z,8.77
2022-11-29T05:22:26.434Z,8.13
2022-11-29T05:25:37.804Z,7.93
2022-11-29T05:28:58.142Z,7.35
2022-11-29T05:32:17.408Z,7.82
2022-11-29T05:35:27.640Z,8.27
2022-11-29T05:38:19.166Z,7.88
2022-11-29T05:41:34.638Z,7.70
2022-11-29T05:44:36.994Z,7.63
2022-11-29T05:47:31.529Z,7.82
2022-11-29T05:50:32.690Z,7.70
2022-11-29T05:53:37.029Z,7.55
2022-11-29T05:56:48.885Z,7.50
2022-11-29T05:59:38.927Z,9.10
2022-11-29T06:02:27.506Z,8.13
2022-11-29T06:05:31.912Z,7.40
2022-11-29T06:08:29.970Z,7.03
2022-11-29T06:11:38.145Z,7.88
2022-11-29T06:14:48.339Z,7.97
2022-11-29T06:17:40.165Z,6.35
2022-11-29T06:20:44.252Z,6.55
2022-11-29T06:23:29.759Z,7.45
2022-11-29T06:26:46.097Z,5.55
2022-11-29T06:29:34.428Z,7.38
2022-11-29T06:32:48.064Z,6.70
2022-11-29T06:36:07.407Z,6.50
2022-11-29T06:38:52.994Z,6.85
2022-11-29T06:41:38.370Z,6.45
2022-11-29T06:44:28.507Z,7.18
2022-11-29T06:47:25.669Z,7.32
2022-11-29T06:50:34.032Z,8.27
2022-11-29T06:53:39.468Z,6.82
2022-11-29T06:56:35.448Z,6.43
2022-11-29T06:59:49.121Z,5.90
2022-11-29T07:03:11.224Z,6.90
2022-11-29T07:05:58.265Z,6.47
2022-11-29T07:08:45.471Z,6.03
2022-11-29T07:11:31.134Z,6.68
2022-11-29T07:14:17.351Z,8.48
2022-11-29T07:17:15.632Z,7.93
2022-11-29T07:20:24.709Z,8.27
2022-11-29T07:23:29.916Z,8.98
2022-11-29T07:26:35.180Z,7.53
2022-11-29T07:29:20.405Z,7.05
2022-11-29T07:32:34.495Z,7.40
2022-11-29T07:35:32.007Z,9.60
2022-11-29T07:38:52.922Z,12.85
2022-11-29T07:41:50.999Z,23.55
2022-11-29T07:44:44.069Z,14.25
2022-11-29T07:47:35.342Z,18.35
2022-11-29T07:50:21.962Z,18.88
2022-11-29T07:53:09.167Z,13.43
2022-11-29T07:55:54.996Z,14.50
2022-11-29T07:58:40.608Z,14.57
2022-11-29T08:01:26.088Z,7.65
2022-11-29T08:04:11.617Z,7.07
2022-11-29T08:07:00.956Z,8.73
2022-11-29T08:09:46.964Z,8.82
2022-11-29T08:12:32.909Z,7.57
2022-11-29T08:15:19.804Z,7.35
2022-11-29T08:18:05.365Z,5.28
2022-11-29T08:20:51.101Z,4.72
2022-11-29T08:23:36.470Z,6.70
2022-11-29T08:26:25.545Z,7.15
2022-11-29T08:29:15.593Z,7.30
2022-11-29T08:32:01.722Z,6.50
2022-11-29T08:34:47.836Z,6.20
2022-11-29T08:37:33.409Z,9.90
2022-11-29T08:40:18.899Z,8.13
2022-11-29T08:43:04.359Z,9.27
2022-11-29T08:45:53.031Z,7.00
2022-11-29T08:48:39.116Z,6.22
2022-11-29T08:51:24.744Z,8.38
2022-11-29T08:54:10.543Z,9.85
2022-11-29T08:57:38.578Z,8.05
2022-11-29T09:00:02.038Z,13.10
2022-11-29T09:02:48.275Z,8.68
2022-11-29T09:05:33.753Z,6.30
2022-11-29T09:08:19.416Z,6.28
2022-11-29T09:11:13.885Z,6.20
2022-11-29T09:14:02.436Z,5.72
2022-11-29T09:16:48.266Z,6.03
2022-11-29T09:19:33.583Z,7.60
2022-11-29T09:22:18.989Z,6.47
2022-11-29T09:25:04.850Z,5.55
2022-11-29T09:27:50.691Z,5.60
2022-11-29T09:30:38.208Z,5.35
2022-11-29T09:33:23.634Z,6.43
2022-11-29T09:36:11.035Z,5.60
2022-11-29T09:39:02.805Z,5.55
2022-11-29T09:42:14.686Z,7.15
2022-11-29T09:45:07.731Z,6.97
2022-11-29T09:48:21.964Z,6.60
2022-11-29T09:51:30.528Z,6.07
2022-11-29T09:55:11.661Z,5.40
2022-11-29T09:57:59.544Z,4.80
2022-11-29T10:00:56.883Z,5.35
2022-11-29T10:03:46.854Z,4.43
2022-11-29T10:06:43.526Z,5.05
2022-11-29T10:09:38.483Z,4.63
2022-11-29T10:12:56.727Z,6.22
2022-11-29T10:15:45.776Z,4.90
2022-11-29T10:18:57.395Z,5.53
2022-11-29T10:21:52.288Z,5.00
2022-11-29T10:24:38.398Z,4.13
2022-11-29T10:27:24.962Z,4.20
2022-11-29T10:30:16.256Z,4.53
2022-11-29T10:33:02.602Z,4.90
2022-11-29T10:35:51.143Z,5.70
2022-11-29T10:38:36.641Z,5.85
2022-11-29T10:41:22.915Z,4.60
2022-11-29T10:44:13.201Z,5.03
2022-11-29T10:47:02.325Z,5.43
2022-11-29T10:49:49.062Z,6.15
2022-11-29T10:52:34.957Z,6.43
2022-11-29T10:55:22.809Z,7.45
2022-11-29T10:58:24.698Z,7.18
2022-11-29T11:01:15.951Z,6.70
2022-11-29T11:04:04.340Z,5.57
2022-11-29T11:06:55.728Z,6.72
2022-11-29T11:09:48.499Z,7.32
2022-11-29T11:12:37.164Z,7.75
2022-11-29T11:15:31.700Z,8.40
2022-11-29T11:18:23.901Z,7.05
2022-11-29T11:21:13.083Z,7.05
2022-11-29T11:24:02.691Z,5.93
2022-11-29T11:26:48.233Z,6.80
2022-11-29T11:29:44.475Z,7.07
2022-11-29T11:32:30.743Z,7.18
2022-11-29T11:35:24.411Z,8.02
2022-11-29T11:38:17.256Z,8.70
2022-11-29T11:41:23.901Z,8.38
2022-11-29T11:44:45.826Z,7.93
2022-11-29T11:47:30.288Z,6.28
2022-11-29T11:50:25.318Z,7.90
2022-11-29T11:53:27.888Z,6.78
2022-11-29T11:56:14.271Z,6.05
2022-11-29T11:59:00.323Z,7.45
2022-11-29T12:01:46.298Z,10.18
2022-11-29T12:04:35.783Z,7.40
2022-11-29T12:08:06.117Z,8.18
2022-11-29T12:10:41.741Z,6.82
2022-11-29T12:13:33.460Z,6.90
2022-11-29T12:16:28.745Z,7.13
2022-11-29T12:19:22.951Z,6.78
2022-11-29T12:22:18.044Z,8.20
2022-11-29T12:25:10.637Z,7.40
2022-11-29T12:31:20.756Z,6.97
2022-11-29T12:34:12.716Z,7.30
2022-11-29T12:37:23.097Z,7.10
2022-11-29T12:41:07.227Z,7.65
2022-11-29T12:44:17.107Z,7.80
2022-11-29T12:47:38.975Z,7.82
2022-11-29T12:58:14.283Z,7.15
2022-11-29T13:01:11.941Z,8.10
2022-11-29T13:04:19.192Z,7.60
2022-11-29T13:07:26.690Z,7.13
2022-11-29T13:10:20.146Z,8.82
2022-11-29T13:13:20.158Z,10.55
2022-11-29T13:16:31.060Z,12.30
2022-11-29T13:19:35.958Z,8.55
2022-11-29T13:22:45.272Z,7.28
2022-11-29T13:48:37.431Z,6.85
2022-11-29T13:51:37.921Z,6.38
2022-11-29T13:54:30.964Z,6.45
2022-11-29T13:57:17.075Z,6.05
2022-11-29T14:20:32.460Z,7.30
2022-11-29T14:23:32.733Z,8.38
2022-11-29T14:26:28.672Z,8.95
2022-11-29T14:29:49.845Z,10.35
2022-11-29T14:32:58.368Z,8.05
2022-11-29T14:35:48.872Z,6.93
2022-11-29T14:38:48.609Z,6.75
2022-11-29T14:41:55.608Z,7.63
2022-11-29T14:44:53.101Z,7.88
2022-11-29T14:47:49.013Z,8.50
2022-11-29T14:54:15.989Z,7.38
2022-11-29T14:57:39.662Z,5.07
2022-11-29T15:00:50.872Z,5.13
2022-11-29T15:03:42.938Z,4.50
2022-11-29T15:06:32.036Z,5.68
2022-11-29T15:09:21.068Z,6.32
2022-11-29T15:12:17.180Z,7.75
2022-11-29T15:15:27.782Z,9.43
2022-11-29T15:18:22.074Z,6.30
2022-11-29T15:21:12.712Z,6.13
2022-11-29T15:24:03.489Z,8.45
2022-11-29T15:27:12.736Z,11.15
2022-11-29T15:29:59.964Z,6.30
2022-11-29T15:32:46.339Z,6.22
2022-11-29T15:35:33.698Z,8.00
2022-11-29T15:38:21.336Z,8.88
2022-11-29T15:41:19.265Z,6.60
2022-11-29T15:44:07.341Z,7.30
2022-11-29T15:46:52.625Z,11.77
2022-11-29T15:49:38.063Z,8.15
2022-11-29T15:52:31.702Z,9.55
2022-11-29T15:55:17.415Z,9.10
2022-11-29T15:58:08.742Z,8.07
2022-11-29T16:00:54.957Z,7.47
2022-11-29T16:03:49.184Z,7.07
2022-11-29T16:06:44.294Z,6.65
2022-11-29T16:09:39.188Z,6.28
2022-11-29T16:12:25.201Z,5.90
2022-11-29T16:15:25.114Z,5.80
2022-11-29T16:18:14.230Z,5.90
2022-11-29T16:21:05.698Z,6.43
2022-11-29T16:23:51.393Z,5.90
2022-11-29T16:26:40.956Z,7.82
2022-11-29T16:29:35.926Z,6.07
2022-11-29T16:32:35.609Z,6.38
2022-11-29T16:35:28.574Z,7.10
2022-11-29T16:38:22.904Z,6.57
2022-11-29T16:41:21.662Z,7.32
2022-11-29T16:44:39.945Z,6.70
2022-11-29T16:47:31.740Z,6.78
2022-11-29T16:50:19.884Z,6.40
2022-11-29T16:53:42.408Z,5.93
2022-11-29T16:56:30.402Z,7.15
2022-11-29T16:59:17.068Z,8.00
2022-11-29T17:02:13.937Z,13.90
2022-11-29T17:05:00.087Z,8.02
2022-11-29T17:07:46.079Z,13.10
2022-11-29T17:10:33.669Z,7.40
2022-11-29T17:13:20.125Z,10.82
2022-11-29T17:16:11.692Z,6.90
2022-11-29T17:18:57.707Z,6.40
2022-11-29T17:21:44.023Z,6.53
2022-11-29T17:24:29.274Z,15.00
2022-11-29T17:27:15.096Z,6.07
2022-11-29T17:30:00.959Z,5.90
2022-11-29T17:32:46.401Z,6.53
2022-11-29T17:35:35.683Z,7.72
2022-11-29T17:38:21.178Z,7.25
2022-11-29T17:41:13.608Z,7.43
2022-11-29T17:44:02.678Z,7.70
2022-11-29T17:46:48.198Z,7.30
2022-11-29T17:49:33.544Z,7.85
2022-11-29T17:52:18.815Z,6.57
2022-11-29T17:55:04.719Z,7.32
2022-11-29T17:57:50.252Z,6.55
2022-11-29T18:00:40.680Z,6.30
2022-11-29T18:03:26.419Z,5.95
2022-11-29T18:06:19.618Z,6.20
2022-11-29T18:09:15.600Z,6.28
2022-11-29T18:12:02.819Z,6.47
2022-11-29T18:14:50.191Z,6.20
2022-11-29T18:17:36.517Z,7.40
2022-11-29T18:20:22.445Z,7.32
2022-11-29T18:23:08.222Z,6.13
2022-11-29T18:26:03.031Z,5.78
2022-11-29T18:28:52.862Z,5.68
2022-11-29T18:31:58.962Z,6.80
2022-11-29T18:34:46.593Z,6.40
2022-11-29T18:38:05.183Z,6.35
2022-11-29T18:40:42.795Z,7.50
2022-11-29T18:43:28.398Z,8.48
2022-11-29T18:46:17.982Z,6.97
2022-11-29T18:49:08.674Z,7.93
2022-11-29T18:51:54.479Z,6.65
2022-11-29T18:54:39.781Z,6.35
2022-11-29T18:57:25.321Z,9.05
2022-11-29T19:00:11.427Z,6.60
2022-11-29T19:02:56.735Z,6.55
2022-11-29T19:05:50.346Z,7.13
2022-11-29T19:08:36.652Z,6.57
2022-11-29T19:11:24.848Z,6.78
2022-11-29T19:14:12.738Z,7.65
2022-11-29T19:16:58.237Z,6.20
2022-11-29T19:19:43.999Z,8.32
2022-11-29T19:22:30.920Z,7.22
2022-11-29T19:25:16.620Z,7.53
2022-11-29T19:28:01.977Z,8.10
2022-11-29T19:30:54.260Z,7.75
2022-11-29T19:33:41.286Z,6.22
2022-11-29T19:36:28.585Z,7.70
2022-11-29T19:39:16.964Z,8.52
2022-11-29T19:42:02.527Z,7.65
2022-11-29T19:45:16.034Z,8.45
2022-11-29T19:47:53.334Z,11.05
2022-11-29T19:50:38.755Z,7.63
2022-11-29T19:53:24.084Z,7.35
2022-11-29T19:56:13.317Z,8.88
2022-11-29T19:59:01.959Z,8.02
2022-11-29T20:01:47.534Z,6.18
2022-11-29T20:04:32.904Z,5.93
2022-11-29T20:07:18.588Z,6.70
2022-11-29T20:10:04.160Z,7.25
2022-11-29T20:12:49.823Z,5.97
2022-11-29T20:15:36.207Z,7.15
2022-11-29T20:18:21.769Z,7.90
2022-11-29T20:21:11.099Z,7.32
2022-11-29T20:23:59.062Z,7.60
2022-11-29T20:26:47.249Z,6.63
2022-11-29T20:29:32.945Z,5.45
2022-11-29T20:32:19.255Z,6.18
2022-11-29T20:35:04.835Z,5.85
2022-11-29T20:38:16.914Z,5.22
2022-11-29T20:41:19.453Z,6.17
2022-11-29T20:44:05.208Z,5.85
2022-11-29T20:46:50.853Z,5.88
2022-11-29T20:49:36.350Z,7.07
2022-11-29T20:52:38.147Z,6.13
2022-11-29T20:55:23.992Z,6.97
2022-11-29T20:58:09.498Z,4.18
2022-11-29T21:00:55.856Z,4.97
2022-11-29T21:03:41.574Z,4.60
2022-11-29T21:06:26.828Z,5.72
2022-11-29T21:09:12.240Z,4.95
2022-11-29T21:11:57.998Z,5.70
2022-11-29T21:14:44.213Z,4.20
2022-11-29T21:17:33.748Z,4.80
2022-11-29T21:20:25.580Z,5.20
2022-11-29T21:23:22.867Z,5.00
2022-11-29T21:26:15.247Z,5.05
2022-11-29T21:29:12.651Z,4.78
2022-11-29T21:31:58.379Z,3.78
2022-11-29T21:34:44.260Z,4.00
2022-11-29T21:37:31.209Z,5.25
2022-11-29T21:40:17.425Z,3.78
2022-11-29T21:43:03.061Z,4.35
2022-11-29T21:45:48.564Z,3.92
2022-11-29T21:48:37.814Z,3.35
2022-11-29T21:51:23.349Z,4.15
2022-11-29T21:54:08.770Z,4.53
2022-11-29T21:56:54.886Z,4.28
2022-11-29T21:59:40.194Z,4.53
2022-11-29T22:02:25.660Z,4.55
2022-11-29T22:05:10.809Z,4.80
2022-11-29T22:07:56.630Z,3.88
2022-11-29T22:10:42.245Z,3.83
2022-11-29T22:13:27.537Z,4.32
2022-11-29T22:16:13.115Z,3.92
2022-11-29T22:18:58.353Z,4.10
2022-11-29T22:21:45.856Z,4.57
2022-11-29T22:24:33.845Z,5.72
2022-11-29T22:27:20.784Z,4.97
2022-11-29T22:30:07.478Z,4.47
2022-11-29T22:32:53.068Z,4.28
2022-11-29T22:35:44.506Z,4.35
2022-11-29T22:38:29.879Z,4.57
2022-11-29T22:41:16.561Z,3.83
2022-11-29T22:44:02.854Z,3.60
2022-11-29T22:46:48.517Z,4.32
2022-11-29T22:49:34.401Z,3.72
2022-11-29T22:52:19.742Z,4.03
2022-11-29T22:55:05.551Z,3.83
2022-11-29T22:57:53.345Z,3.75
2022-11-29T23:00:44.037Z,3.13
2022-11-29T23:03:32.417Z,4.00
2022-11-29T23:06:20.189Z,3.25
2022-11-29T23:09:18.904Z,3.10
2022-11-29T23:12:04.424Z,2.88
2022-11-29T23:14:55.803Z,3.60
2022-11-29T23:17:41.907Z,3.30
2022-11-29T23:20:27.094Z,4.55
2022-11-29T23:23:12.454Z,5.55
2022-11-29T23:25:58.634Z,5.38
2022-11-29T23:28:44.157Z,4.93
2022-11-29T23:31:29.662Z,4.25
2022-11-29T23:34:15.370Z,5.35
2022-11-29T23:37:01.050Z,4.65
2022-11-29T23:39:46.451Z,4.28
2022-11-29T23:42:31.699Z,3.70
2022-11-29T23:45:17.027Z,4.63
2022-11-29T23:48:02.374Z,5.63
2022-11-29T23:50:47.807Z,5.10
2022-11-29T23:53:33.140Z,4.40
2022-11-29T23:56:19.203Z,4.93
2022-11-29T23:59:04.695Z,5.22
